Time;durP1;ratioP1;P1;durP2;ratioP2;P2;SDS_P1;SDS_P2;PMS_P1;PMS_P2;Temp;Humidity;BMP_temperature;BMP_pressure;BME280_temperature;BME280_humidity;BME280_pressure;Samples;Min_cycle;Max_cycle;Signal;HPM_P1;HPM_P2
2023/07/27 00:00:44;;;;;;;7.63;2.63;;;;;;;;;;5073500;28;20024;-76
2023/07/27 00:03:09;;;;;;;5.68;2.45;;;;;;;;;;5072859;28;20013;-76
2023/07/27 00:05:35;;;;;;;4.80;2.40;;;;;;;;;;5073259;28;20108;-76
2023/07/27 00:08:00;;;;;;;12.80;2.95;;;;;;;;;;5073240;28;20028;-76
2023/07/27 00:10:27;;;;;;;4.88;2.97;;;;;;;;;;5055841;28;20021;-76
2023/07/27 00:12:54;;;;;;;6.68;2.30;;;;;;;;;;5072509;28;20058;-75
2023/07/27 00:15:19;;;;;;;8.55;2.92;;;;;;;;;;5038693;28;20486;-76
2023/07/27 00:17:44;;;;;;;9.65;2.50;;;;;;;;;;5057243;28;20035;-76
2023/07/27 00:20:10;;;;;;;4.78;2.00;;;;;;;;;;5076742;28;20421;-76
2023/07/27 00:22:37;;;;;;;5.53;2.25;;;;;;;;;;5058827;28;20115;-76
2023/07/27 00:25:03;;;;;;;8.50;2.60;;;;;;;;;;5059172;28;20117;-76
2023/07/27 00:27:28;;;;;;;8.52;3.17;;;;;;;;;;5058188;28;20119;-76
2023/07/27 00:29:54;;;;;;;9.13;3.20;;;;;;;;;;5076527;28;20030;-76
2023/07/27 00:32:19;;;;;;;7.50;2.83;;;;;;;;;;5058727;28;20024;-76
2023/07/27 00:34:44;;;;;;;9.77;2.53;;;;;;;;;;5076439;28;20077;-76
2023/07/27 00:37:10;;;;;;;10.68;2.88;;;;;;;;;;5058818;28;20386;-76
2023/07/27 00:39:38;;;;;;;3.72;2.55;;;;;;;;;;5076613;28;20036;-76
2023/07/27 00:42:03;;;;;;;4.95;2.58;;;;;;;;;;5057948;28;20513;-76
2023/07/27 00:44:29;;;;;;;7.93;2.72;;;;;;;;;;5076538;28;20024;-76
2023/07/27 00:46:54;;;;;;;6.43;2.55;;;;;;;;;;5076446;28;20493;-76
2023/07/27 00:49:19;;;;;;;5.45;2.67;;;;;;;;;;5058774;28;20040;-76
2023/07/27 00:51:45;;;;;;;6.95;2.55;;;;;;;;;;5041062;28;20089;-76
2023/07/27 00:54:11;;;;;;;8.35;2.83;;;;;;;;;;5058222;28;20104;-76
2023/07/27 00:56:37;;;;;;;7.72;3.17;;;;;;;;;;5058138;28;20035;-75
2023/07/27 00:59:03;;;;;;;7.07;3.17;;;;;;;;;;5075436;28;20052;-76
2023/07/27 01:01:29;;;;;;;8.43;2.80;;;;;;;;;;5058085;28;20056;-76
2023/07/27 01:03:54;;;;;;;7.03;2.95;;;;;;;;;;5058377;28;20032;-76
2023/07/27 01:06:20;;;;;;;4.13;2.38;;;;;;;;;;5040730;28;20035;-77
2023/07/27 01:08:45;;;;;;;3.80;2.50;;;;;;;;;;5057983;28;20039;-76
2023/07/27 01:11:22;;;;;;;7.38;2.60;;;;;;;;;;5057917;28;20024;-76
2023/07/27 01:13:54;;;;;;;5.72;2.40;;;;;;;;;;5041304;28;20119;-76
2023/07/27 01:16:31;;;;;;;7.65;3.22;;;;;;;;;;5058001;28;20107;-76
2023/07/27 01:19:18;;;;;;;7.10;2.80;;;;;;;;;;5057596;28;20028;-76
2023/07/27 01:21:48;;;;;;;6.90;2.50;;;;;;;;;;5075669;28;20396;-76
2023/07/27 01:25:09;;;;;;;5.43;2.55;;;;;;;;;;5057707;28;20486;-76
2023/07/27 01:28:05;;;;;;;10.45;3.05;;;;;;;;;;5052021;28;20041;-76
2023/07/27 01:30:50;;;;;;;5.15;2.50;;;;;;;;;;5074927;28;20359;-76
2023/07/27 01:33:19;;;;;;;7.00;3.13;;;;;;;;;;5040882;28;20589;-76
2023/07/27 01:35:53;;;;;;;4.65;2.40;;;;;;;;;;5057625;28;20043;-77
2023/07/27 01:38:19;;;;;;;6.28;2.40;;;;;;;;;;5057857;28;20027;-76
2023/07/27 01:40:45;;;;;;;7.53;2.95;;;;;;;;;;5056879;28;20036;-76
2023/07/27 01:43:11;;;;;;;5.07;2.95;;;;;;;;;;5075267;28;20031;-76
2023/07/27 01:45:38;;;;;;;4.93;2.55;;;;;;;;;;5057373;28;20036;-76
2023/07/27 01:48:04;;;;;;;5.55;2.90;;;;;;;;;;5057071;28;20035;-76
2023/07/27 01:50:30;;;;;;;4.47;2.38;;;;;;;;;;5056933;28;20096;-76
2023/07/27 01:52:55;;;;;;;6.43;2.92;;;;;;;;;;5057248;28;20438;-76
2023/07/27 01:55:22;;;;;;;6.95;2.65;;;;;;;;;;5057334;28;20143;-76
2023/07/27 01:57:49;;;;;;;4.57;2.65;;;;;;;;;;5056895;28;20055;-76
2023/07/27 02:00:15;;;;;;;6.22;2.60;;;;;;;;;;5056952;28;20055;-76
2023/07/27 02:02:41;;;;;;;4.82;2.45;;;;;;;;;;5074784;28;20059;-76
2023/07/27 02:05:08;;;;;;;4.80;2.60;;;;;;;;;;5056619;28;20025;-76
2023/07/27 02:07:36;;;;;;;3.10;2.15;;;;;;;;;;5074615;28;20024;-76
2023/07/27 02:10:02;;;;;;;3.80;2.10;;;;;;;;;;5074687;28;20103;-76
2023/07/27 02:12:31;;;;;;;6.78;2.80;;;;;;;;;;5074477;28;20066;-76
2023/07/27 02:15:11;;;;;;;3.00;2.00;;;;;;;;;;5056760;28;20107;-76
2023/07/27 02:17:46;;;;;;;5.88;2.90;;;;;;;;;;5039383;28;20070;-77
2023/07/27 02:20:13;;;;;;;4.85;2.60;;;;;;;;;;5057185;28;20025;-76
2023/07/27 02:22:40;;;;;;;5.90;2.33;;;;;;;;;;5040037;28;20134;-76
2023/07/27 02:25:06;;;;;;;5.03;2.45;;;;;;;;;;5056520;28;20032;-76
2023/07/27 02:27:31;;;;;;;4.57;2.63;;;;;;;;;;5039418;28;20382;-77
2023/07/27 02:29:57;;;;;;;7.30;2.95;;;;;;;;;;5074337;28;20028;-76
2023/07/27 02:32:22;;;;;;;7.38;2.97;;;;;;;;;;5074312;28;20016;-76
2023/07/27 02:34:47;;;;;;;6.90;2.75;;;;;;;;;;5074176;28;20067;-76
2023/07/27 02:37:13;;;;;;;6.85;2.70;;;;;;;;;;5073523;28;20020;-76
2023/07/27 02:39:38;;;;;;;11.07;3.40;;;;;;;;;;5055986;28;20031;-76
2023/07/27 02:42:03;;;;;;;9.38;4.18;;;;;;;;;;5040009;28;20043;-76
2023/07/27 02:44:29;;;;;;;9.77;3.50;;;;;;;;;;5056460;28;20056;-76
2023/07/27 02:46:54;;;;;;;6.00;2.88;;;;;;;;;;5073577;28;20024;-76
2023/07/27 02:49:19;;;;;;;10.95;3.22;;;;;;;;;;5074356;28;20024;-76
2023/07/27 02:51:44;;;;;;;6.65;3.38;;;;;;;;;;5074298;28;20043;-76
2023/07/27 02:54:10;;;;;;;6.80;3.20;;;;;;;;;;5074194;28;20028;-76
2023/07/27 02:56:37;;;;;;;7.78;3.05;;;;;;;;;;5073967;28;20032;-76
2023/07/27 02:59:03;;;;;;;7.40;3.45;;;;;;;;;;5073960;28;20066;-77
2023/07/27 03:01:28;;;;;;;4.38;3.05;;;;;;;;;;5073544;28;20024;-76
2023/07/27 03:03:53;;;;;;;8.43;3.58;;;;;;;;;;5055921;28;20470;-76
2023/07/27 03:06:19;;;;;;;5.55;2.85;;;;;;;;;;5073779;28;20042;-76
2023/07/27 03:08:44;;;;;;;8.88;3.20;;;;;;;;;;5055738;28;20161;-76
2023/07/27 03:11:09;;;;;;;8.45;3.63;;;;;;;;;;5055361;28;20024;-77
2023/07/27 03:13:34;;;;;;;8.77;3.72;;;;;;;;;;5074775;28;20029;-77
2023/07/27 03:16:03;;;;;;;7.57;3.05;;;;;;;;;;5089938;28;20382;-77
2023/07/27 03:18:29;;;;;;;4.82;2.90;;;;;;;;;;5058720;28;20030;-76
2023/07/27 03:20:54;;;;;;;7.47;3.58;;;;;;;;;;5059847;28;20020;-77
2023/07/27 03:23:19;;;;;;;6.28;3.25;;;;;;;;;;5100517;28;20020;-77
2023/07/27 03:25:45;;;;;;;5.47;2.63;;;;;;;;;;5075716;28;20099;-77
2023/07/27 03:28:13;;;;;;;4.70;2.85;;;;;;;;;;5093091;28;20396;-76
2023/07/27 03:30:38;;;;;;;6.13;2.95;;;;;;;;;;5058093;28;20020;-76
2023/07/27 03:33:05;;;;;;;5.95;3.05;;;;;;;;;;5093679;28;20084;-76
2023/07/27 03:35:30;;;;;;;7.07;3.30;;;;;;;;;;5063259;28;20016;-76
2023/07/27 03:37:56;;;;;;;5.78;2.95;;;;;;;;;;5055362;28;20035;-76
2023/07/27 03:40:21;;;;;;;5.88;3.53;;;;;;;;;;5075273;28;20032;-77
2023/07/27 03:42:46;;;;;;;6.65;2.85;;;;;;;;;;5055530;28;20029;-76
2023/07/27 03:45:15;;;;;;;5.90;3.58;;;;;;;;;;5073723;28;20029;-76
2023/07/27 03:47:44;;;;;;;6.93;2.67;;;;;;;;;;5055469;28;20024;-76
2023/07/27 03:50:10;;;;;;;5.40;2.67;;;;;;;;;;5071561;28;20028;-77
2023/07/27 03:52:36;;;;;;;7.18;3.03;;;;;;;;;;5057209;28;20029;-76
2023/07/27 03:55:01;;;;;;;6.20;3.38;;;;;;;;;;5075998;28;20466;-77
2023/07/27 03:57:26;;;;;;;4.88;3.72;;;;;;;;;;5075735;28;20051;-77
2023/07/27 03:59:55;;;;;;;8.90;4.70;;;;;;;;;;5157848;22;20422;-75
2023/07/27 04:02:22;;;;;;;3.65;2.63;;;;;;;;;;5054837;28;20064;-74
2023/07/27 04:04:47;;;;;;;4.88;2.90;;;;;;;;;;5055183;28;20543;-74
2023/07/27 04:07:13;;;;;;;11.10;3.35;;;;;;;;;;5038525;28;20111;-74
2023/07/27 04:09:38;;;;;;;8.90;3.17;;;;;;;;;;5071070;28;20108;-74
2023/07/27 04:12:04;;;;;;;5.18;2.95;;;;;;;;;;5041743;28;20060;-74
2023/07/27 04:14:29;;;;;;;5.57;2.60;;;;;;;;;;5057688;28;20028;-74
2023/07/27 04:16:54;;;;;;;5.55;3.10;;;;;;;;;;5041641;28;20060;-74
2023/07/27 04:19:20;;;;;;;9.88;3.40;;;;;;;;;;5076176;28;20021;-75
2023/07/27 04:21:45;;;;;;;16.33;4.45;;;;;;;;;;5057545;28;20024;-75
2023/07/27 04:24:10;;;;;;;6.82;2.90;;;;;;;;;;5076063;28;20496;-74
2023/07/27 04:26:35;;;;;;;5.53;3.65;;;;;;;;;;5075729;28;20074;-74
2023/07/27 04:29:01;;;;;;;11.30;3.45;;;;;;;;;;5076222;28;20020;-75
2023/07/27 04:31:26;;;;;;;8.82;3.85;;;;;;;;;;5075929;28;20028;-75
2023/07/27 04:33:51;;;;;;;8.02;3.55;;;;;;;;;;5076110;28;20021;-74
2023/07/27 04:36:16;;;;;;;12.60;3.88;;;;;;;;;;5057622;28;20021;-74
2023/07/27 04:38:42;;;;;;;11.00;3.95;;;;;;;;;;5058211;28;20496;-74
2023/07/27 04:41:07;;;;;;;11.43;3.92;;;;;;;;;;5057825;28;20071;-75
2023/07/27 04:43:32;;;;;;;8.20;3.95;;;;;;;;;;5057776;28;20028;-75
2023/07/27 04:45:58;;;;;;;9.00;3.67;;;;;;;;;;5057818;28;20025;-74
2023/07/27 04:48:23;;;;;;;9.23;4.15;;;;;;;;;;5058130;28;20036;-75
2023/07/27 04:50:48;;;;;;;7.50;3.25;;;;;;;;;;5075296;28;20044;-75
2023/07/27 04:53:13;;;;;;;6.90;3.53;;;;;;;;;;5075831;28;20537;-75
2023/07/27 04:55:39;;;;;;;7.53;3.95;;;;;;;;;;5075048;28;20023;-75
2023/07/27 04:58:04;;;;;;;7.85;3.92;;;;;;;;;;5057765;28;20378;-74
2023/07/27 05:00:30;;;;;;;6.40;3.45;;;;;;;;;;5058102;28;20127;-75
2023/07/27 05:02:57;;;;;;;6.55;3.30;;;;;;;;;;5075213;28;20056;-74
2023/07/27 05:05:22;;;;;;;6.30;3.30;;;;;;;;;;5057617;28;20012;-74
2023/07/27 05:07:47;;;;;;;12.82;3.78;;;;;;;;;;5057318;28;20039;-75
2023/07/27 05:10:13;;;;;;;6.63;3.83;;;;;;;;;;5056868;28;20024;-75
2023/07/27 05:12:38;;;;;;;11.73;4.15;;;;;;;;;;5040617;28;20036;-74
2023/07/27 05:15:04;;;;;;;9.43;3.58;;;;;;;;;;5075104;28;20025;-74
2023/07/27 05:17:29;;;;;;;8.25;4.00;;;;;;;;;;5057121;28;20028;-75
2023/07/27 05:19:54;;;;;;;20.38;4.60;;;;;;;;;;5075122;28;20032;-75
2023/07/27 05:22:20;;;;;;;9.60;3.78;;;;;;;;;;5057228;28;20021;-74
2023/07/27 05:24:45;;;;;;;8.13;3.75;;;;;;;;;;5039952;28;20535;-75
2023/07/27 05:27:10;;;;;;;8.77;3.72;;;;;;;;;;5057044;28;20482;-74
2023/07/27 05:29:36;;;;;;;9.77;4.07;;;;;;;;;;5057301;28;20016;-73
2023/07/27 05:32:02;;;;;;;11.48;4.60;;;;;;;;;;5057217;28;20448;-73
2023/07/27 05:34:27;;;;;;;8.20;4.32;;;;;;;;;;5056236;28;20025;-73
2023/07/27 05:36:53;;;;;;;7.90;4.30;;;;;;;;;;5040189;28;20379;-74
2023/07/27 05:39:18;;;;;;;12.23;5.05;;;;;;;;;;5074653;28;20044;-74
2023/07/27 05:41:43;;;;;;;8.45;4.00;;;;;;;;;;5056942;28;20031;-73
2023/07/27 05:44:09;;;;;;;11.10;4.43;;;;;;;;;;5074028;28;20021;-73
2023/07/27 05:46:34;;;;;;;10.40;4.28;;;;;;;;;;5057063;28;20028;-73
2023/07/27 05:48:59;;;;;;;9.10;3.67;;;;;;;;;;5056508;28;20024;-73
2023/07/27 05:51:24;;;;;;;8.18;3.72;;;;;;;;;;5073883;28;20081;-73
2023/07/27 05:53:51;;;;;;;9.05;4.43;;;;;;;;;;5056632;28;20048;-73
2023/07/27 05:56:17;;;;;;;10.15;4.68;;;;;;;;;;5073028;28;20144;-73
2023/07/27 05:58:42;;;;;;;6.65;3.17;;;;;;;;;;5056228;28;20575;-73
2023/07/27 06:01:07;;;;;;;8.52;3.60;;;;;;;;;;5074588;28;20451;-73
2023/07/27 06:03:34;;;;;;;5.03;3.45;;;;;;;;;;5055886;28;20028;-73
2023/07/27 06:05:59;;;;;;;10.75;4.20;;;;;;;;;;5056385;28;20016;-73
2023/07/27 06:08:24;;;;;;;6.55;3.10;;;;;;;;;;5056285;28;20028;-74
2023/07/27 06:10:59;;;;;;;7.35;3.72;;;;;;;;;;5056473;28;20020;-74
2023/07/27 06:13:24;;;;;;;8.20;4.00;;;;;;;;;;5055572;28;20020;-73
2023/07/27 06:15:50;;;;;;;8.55;3.78;;;;;;;;;;5024265;28;20025;-73
2023/07/27 06:18:15;;;;;;;8.25;4.18;;;;;;;;;;5032698;28;20075;-73
2023/07/27 06:20:41;;;;;;;10.32;3.70;;;;;;;;;;5052071;28;20032;-73
2023/07/27 06:23:06;;;;;;;8.75;3.25;;;;;;;;;;5055513;28;20395;-73
2023/07/27 06:25:31;;;;;;;8.00;3.22;;;;;;;;;;5073669;28;20050;-73
2023/07/27 06:27:56;;;;;;;6.18;3.83;;;;;;;;;;5055403;28;20035;-73
2023/07/27 06:30:22;;;;;;;8.05;3.42;;;;;;;;;;5055896;28;20119;-73
2023/07/27 06:32:47;;;;;;;5.93;3.00;;;;;;;;;;5055811;28;20103;-73
2023/07/27 06:35:12;;;;;;;8.32;3.63;;;;;;;;;;5073527;28;20474;-74
2023/07/27 06:37:38;;;;;;;7.90;3.20;;;;;;;;;;5055157;28;20086;-73
2023/07/27 06:40:05;;;;;;;6.57;3.35;;;;;;;;;;5073446;28;20035;-74
2023/07/27 06:42:30;;;;;;;6.63;3.70;;;;;;;;;;5056033;28;20021;-73
2023/07/27 06:44:58;;;;;;;6.28;3.80;;;;;;;;;;5051327;28;20021;-74
2023/07/27 06:47:24;;;;;;;9.95;3.03;;;;;;;;;;5019164;28;20055;-73
2023/07/27 06:49:49;;;;;;;5.78;3.40;;;;;;;;;;5053352;28;20061;-73
2023/07/27 06:52:14;;;;;;;7.32;3.35;;;;;;;;;;5019123;28;20021;-74
2023/07/27 06:54:39;;;;;;;7.40;3.08;;;;;;;;;;5052791;28;20072;-74
2023/07/27 06:57:09;;;;;;;9.52;3.28;;;;;;;;;;5035649;28;20025;-73
2023/07/27 06:59:34;;;;;;;7.03;3.42;;;;;;;;;;5035915;28;20029;-73
2023/07/27 07:02:00;;;;;;;10.38;3.03;;;;;;;;;;5035439;28;20016;-73
2023/07/27 07:04:25;;;;;;;5.57;3.25;;;;;;;;;;5060689;28;20012;-73
2023/07/27 07:06:51;;;;;;;9.35;3.13;;;;;;;;;;5073827;28;20055;-74
2023/07/27 07:09:16;;;;;;;7.63;3.13;;;;;;;;;;5055434;28;20067;-74
2023/07/27 07:11:41;;;;;;;7.35;3.42;;;;;;;;;;5055751;28;20048;-74
2023/07/27 07:14:07;;;;;;;8.27;3.20;;;;;;;;;;5069009;28;20062;-74
2023/07/27 07:16:32;;;;;;;7.40;3.70;;;;;;;;;;5035097;28;20052;-73
2023/07/27 07:18:58;;;;;;;8.35;3.90;;;;;;;;;;4999046;28;20034;-73
2023/07/27 07:21:23;;;;;;;6.20;2.85;;;;;;;;;;5062674;28;20056;-74
2023/07/27 07:23:48;;;;;;;8.52;3.22;;;;;;;;;;5073164;28;20017;-73
2023/07/27 07:26:14;;;;;;;6.65;2.78;;;;;;;;;;5045145;28;20451;-73
2023/07/27 07:28:39;;;;;;;8.00;3.45;;;;;;;;;;5072275;28;20032;-73
2023/07/27 07:31:05;;;;;;;8.00;2.85;;;;;;;;;;5035780;28;20390;-73
2023/07/27 07:33:31;;;;;;;6.38;2.83;;;;;;;;;;5070057;28;20228;-73
2023/07/27 07:35:56;;;;;;;5.10;2.63;;;;;;;;;;5041944;28;20490;-73
2023/07/27 07:38:21;;;;;;;4.65;2.50;;;;;;;;;;5042281;28;20502;-73
2023/07/27 07:40:47;;;;;;;6.32;3.22;;;;;;;;;;5037277;28;20033;-73
2023/07/27 07:43:12;;;;;;;8.75;3.78;;;;;;;;;;5037132;28;20059;-74
2023/07/27 07:45:37;;;;;;;8.32;3.72;;;;;;;;;;5065438;28;20024;-73
2023/07/27 07:48:03;;;;;;;11.77;4.55;;;;;;;;;;5058482;28;20028;-74
2023/07/27 07:50:29;;;;;;;4.00;2.58;;;;;;;;;;5029252;28;20537;-73
2023/07/27 07:52:54;;;;;;;7.35;4.10;;;;;;;;;;5019270;28;20475;-73
2023/07/27 07:55:19;;;;;;;4.70;2.78;;;;;;;;;;5039612;28;20053;-72
2023/07/27 07:57:45;;;;;;;5.75;2.75;;;;;;;;;;5056688;28;20028;-73
2023/07/27 08:00:10;;;;;;;5.43;2.53;;;;;;;;;;5055783;28;20033;-73
2023/07/27 08:02:36;;;;;;;8.80;3.50;;;;;;;;;;5038661;28;20107;-73
2023/07/27 08:05:01;;;;;;;6.57;3.22;;;;;;;;;;5056448;28;20095;-73
2023/07/27 08:07:26;;;;;;;6.53;3.40;;;;;;;;;;5046243;28;20033;-73
2023/07/27 08:09:51;;;;;;;4.93;3.25;;;;;;;;;;5002864;28;20025;-73
2023/07/27 08:12:17;;;;;;;7.80;4.43;;;;;;;;;;5052327;28;20029;-73
2023/07/27 08:14:42;;;;;;;6.13;3.20;;;;;;;;;;5075999;28;20039;-74
2023/07/27 08:17:08;;;;;;;10.13;3.75;;;;;;;;;;5058511;28;20371;-72
2023/07/27 08:19:33;;;;;;;7.00;3.65;;;;;;;;;;5034874;28;20020;-72
2023/07/27 08:21:58;;;;;;;10.90;3.58;;;;;;;;;;5034121;28;20033;-72
2023/07/27 08:24:24;;;;;;;7.13;3.25;;;;;;;;;;5027633;28;20021;-72
2023/07/27 08:26:50;;;;;;;4.70;2.95;;;;;;;;;;5021345;28;20112;-72
2023/07/27 08:29:15;;;;;;;4.93;3.28;;;;;;;;;;5035942;28;20108;-72
2023/07/27 08:31:41;;;;;;;7.22;3.50;;;;;;;;;;5036147;28;20076;-72
2023/07/27 08:34:06;;;;;;;5.65;3.30;;;;;;;;;;5035125;28;20060;-71
2023/07/27 08:36:32;;;;;;;7.40;3.28;;;;;;;;;;5034744;28;20471;-71
2023/07/27 08:38:58;;;;;;;5.57;3.50;;;;;;;;;;5052320;28;20016;-71
2023/07/27 08:41:25;;;;;;;7.18;3.30;;;;;;;;;;5057744;28;20032;-72
2023/07/27 08:43:51;;;;;;;5.65;3.58;;;;;;;;;;5075624;28;20020;-72
2023/07/27 08:46:17;;;;;;;6.07;3.60;;;;;;;;;;5057547;28;20025;-72
2023/07/27 08:48:43;;;;;;;5.75;3.35;;;;;;;;;;5057446;28;20505;-72
2023/07/27 08:51:08;;;;;;;5.63;3.17;;;;;;;;;;5076054;28;20031;-72
2023/07/27 08:53:34;;;;;;;6.30;3.80;;;;;;;;;;5057067;28;20485;-72
2023/07/27 08:55:59;;;;;;;5.93;3.50;;;;;;;;;;5051072;28;20057;-72
2023/07/27 08:58:24;;;;;;;7.75;3.75;;;;;;;;;;5001398;28;20025;-73
2023/07/27 09:00:50;;;;;;;4.90;3.20;;;;;;;;;;5019932;28;20421;-73
2023/07/27 09:03:15;;;;;;;6.10;3.22;;;;;;;;;;5017218;28;20033;-72
2023/07/27 09:05:45;;;;;;;9.25;4.30;;;;;;;;;;5021269;28;20021;-74
2023/07/27 09:08:14;;;;;;;7.15;3.75;;;;;;;;;;5057856;28;20070;-72
2023/07/27 09:10:43;;;;;;;8.70;3.78;;;;;;;;;;5057181;28;20055;-72
2023/07/27 09:13:09;;;;;;;5.40;3.25;;;;;;;;;;5057533;28;20020;-72
2023/07/27 09:15:35;;;;;;;4.68;3.28;;;;;;;;;;5042898;28;20540;-72
2023/07/27 09:18:03;;;;;;;6.50;3.22;;;;;;;;;;5037253;28;20024;-73
2023/07/27 09:20:30;;;;;;;7.20;3.03;;;;;;;;;;5037232;28;20112;-74
2023/07/27 09:22:58;;;;;;;6.68;2.70;;;;;;;;;;5037664;28;20020;-74
2023/07/27 09:25:24;;;;;;;9.57;2.80;;;;;;;;;;5051180;28;20017;-74
2023/07/27 09:27:54;;;;;;;4.38;2.80;;;;;;;;;;5021179;28;20166;-73
2023/07/27 09:30:19;;;;;;;4.50;2.83;;;;;;;;;;5035099;28;20505;-73
2023/07/27 09:32:49;;;;;;;5.68;2.88;;;;;;;;;;5042850;28;20028;-73
2023/07/27 09:35:15;;;;;;;7.00;3.45;;;;;;;;;;5057170;28;20028;-72
2023/07/27 09:37:50;;;;;;;7.38;3.55;;;;;;;;;;5057110;28;20498;-72
2023/07/27 09:40:25;;;;;;;5.10;2.80;;;;;;;;;;5057086;28;20023;-73
2023/07/27 09:42:51;;;;;;;6.90;2.88;;;;;;;;;;5038999;28;20505;-73
2023/07/27 09:45:16;;;;;;;5.50;3.35;;;;;;;;;;5036200;28;20025;-73
2023/07/27 09:47:42;;;;;;;5.35;3.20;;;;;;;;;;5071886;28;20021;-73
2023/07/27 09:50:08;;;;;;;4.45;2.92;;;;;;;;;;5073420;28;20024;-73
2023/07/27 09:52:35;;;;;;;5.38;2.63;;;;;;;;;;5074125;28;20024;-74
2023/07/27 09:55:01;;;;;;;6.32;2.70;;;;;;;;;;5057231;28;20032;-75
2023/07/27 09:57:26;;;;;;;5.40;3.00;;;;;;;;;;5056492;28;20078;-74
2023/07/27 09:59:52;;;;;;;5.60;2.55;;;;;;;;;;5121810;23;20043;-76
2023/07/27 10:02:19;;;;;;;4.68;3.00;;;;;;;;;;5060826;28;20457;-79
2023/07/27 10:04:54;;;;;;;4.80;2.75;;;;;;;;;;5062454;28;20082;-78
2023/07/27 10:07:21;;;;;;;4.07;2.78;;;;;;;;;;5097515;28;20020;-78
2023/07/27 10:09:47;;;;;;;3.90;2.33;;;;;;;;;;5078140;28;20020;-77
2023/07/27 10:12:27;;;;;;;4.60;2.90;;;;;;;;;;5078989;28;20385;-78
2023/07/27 10:15:21;;;;;;;4.47;2.67;;;;;;;;;;5096869;28;20024;-78
2023/07/27 10:17:51;;;;;;;5.57;2.70;;;;;;;;;;5062171;28;20024;-79
2023/07/27 10:20:26;;;;;;;7.93;4.00;;;;;;;;;;5095563;28;20031;-78
2023/07/27 10:23:20;;;;;;;5.85;3.20;;;;;;;;;;5079523;28;20032;-78
2023/07/27 10:26:00;;;;;;;6.60;3.53;;;;;;;;;;5078592;28;20039;-78
2023/07/27 10:28:37;;;;;;;5.93;2.85;;;;;;;;;;5097077;28;20020;-78
2023/07/27 10:31:14;;;;;;;7.60;3.38;;;;;;;;;;5096305;28;20019;-79
2023/07/27 10:33:56;;;;;;;4.53;3.15;;;;;;;;;;5095837;28;20060;-78
2023/07/27 10:36:23;;;;;;;6.90;3.75;;;;;;;;;;5078299;28;20145;-79
2023/07/27 10:38:55;;;;;;;6.35;3.67;;;;;;;;;;5079083;28;20095;-79
2023/07/27 10:41:23;;;;;;;9.02;3.75;;;;;;;;;;5096263;28;20072;-78
2023/07/27 10:44:07;;;;;;;5.50;3.13;;;;;;;;;;5078376;28;20020;-77
2023/07/27 10:46:35;;;;;;;6.38;3.65;;;;;;;;;;5077849;28;20031;-78
2023/07/27 10:49:10;;;;;;;5.85;3.03;;;;;;;;;;5096437;28;20131;-77
2023/07/27 10:51:37;;;;;;;7.50;3.30;;;;;;;;;;5078283;28;20035;-77
2023/07/27 10:54:02;;;;;;;6.05;3.33;;;;;;;;;;5079407;28;20488;-78
2023/07/27 10:56:28;;;;;;;4.80;3.10;;;;;;;;;;5096327;28;20043;-78
2023/07/27 10:58:58;;;;;;;9.20;3.42;;;;;;;;;;5079821;28;20482;-78
2023/07/27 11:01:24;;;;;;;6.68;3.63;;;;;;;;;;5062026;28;20409;-78
2023/07/27 11:03:49;;;;;;;7.07;3.33;;;;;;;;;;5096696;28;20016;-79
2023/07/27 11:06:15;;;;;;;6.97;3.83;;;;;;;;;;5061010;28;20020;-79
2023/07/27 11:08:40;;;;;;;5.95;3.45;;;;;;;;;;5095759;28;20378;-79
2023/07/27 11:11:20;;;;;;;5.38;3.03;;;;;;;;;;5096209;28;20046;-78
2023/07/27 11:13:46;;;;;;;4.78;3.05;;;;;;;;;;5060525;28;20404;-79
2023/07/27 11:16:14;;;;;;;10.93;3.80;;;;;;;;;;5078499;28;20104;-79
2023/07/27 11:18:43;;;;;;;6.60;4.20;;;;;;;;;;5078289;28;20083;-78
2023/07/27 11:21:09;;;;;;;5.85;3.13;;;;;;;;;;5062663;28;20050;-79
2023/07/27 11:23:46;;;;;;;7.25;3.63;;;;;;;;;;5078946;28;20024;-77
2023/07/27 11:26:12;;;;;;;;;;;;;;;;;;5082015;28;20024;-78
2023/07/27 11:28:39;;;;;;;4.40;2.85;;;;;;;;;;5063006;28;19961;-79
2023/07/27 11:31:05;;;;;;;5.65;3.33;;;;;;;;;;5079278;28;20074;-77
2023/07/27 11:33:34;;;;;;;7.57;3.88;;;;;;;;;;5079293;28;20020;-77
2023/07/27 11:36:00;;;;;;;8.23;3.78;;;;;;;;;;5080220;28;20440;-79
2023/07/27 11:38:26;;;;;;;6.57;3.47;;;;;;;;;;5080056;28;20110;-79
2023/07/27 11:40:54;;;;;;;7.22;3.85;;;;;;;;;;5097873;28;20048;-78
2023/07/27 11:43:19;;;;;;;6.68;3.42;;;;;;;;;;5079573;28;20020;-79
2023/07/27 11:45:45;;;;;;;6.78;4.15;;;;;;;;;;5097624;28;20024;-79
2023/07/27 11:48:12;;;;;;;6.28;3.80;;;;;;;;;;5062287;28;20495;-77
2023/07/27 11:50:38;;;;;;;7.82;4.13;;;;;;;;;;5096103;28;20085;-78
2023/07/27 11:53:08;;;;;;;9.23;5.03;;;;;;;;;;5096362;28;20458;-78
2023/07/27 11:55:35;;;;;;;7.00;4.22;;;;;;;;;;5078306;28;20016;-78
2023/07/27 11:58:05;;;;;;;9.90;4.70;;;;;;;;;;5078637;28;20027;-78
2023/07/27 12:00:30;;;;;;;9.93;5.80;;;;;;;;;;5062011;28;20031;-77
2023/07/27 12:02:55;;;;;;;10.70;6.28;;;;;;;;;;5078602;28;20020;-78
2023/07/27 12:05:22;;;;;;;7.22;5.35;;;;;;;;;;5077483;28;20027;-77
2023/07/27 12:07:50;;;;;;;8.90;6.45;;;;;;;;;;5077443;28;20081;-78
2023/07/27 12:10:16;;;;;;;12.85;7.25;;;;;;;;;;5061962;28;20058;-78
2023/07/27 12:12:54;;;;;;;12.63;7.35;;;;;;;;;;5075298;28;20027;-78
2023/07/27 12:15:31;;;;;;;12.25;8.18;;;;;;;;;;5054494;28;20031;-78
2023/07/27 12:17:58;;;;;;;12.70;7.47;;;;;;;;;;5077392;28;20020;-79
2023/07/27 12:20:25;;;;;;;11.77;8.00;;;;;;;;;;5080949;28;20398;-78
2023/07/27 12:22:50;;;;;;;9.30;7.20;;;;;;;;;;5065188;28;20016;-78
2023/07/27 12:25:15;;;;;;;10.65;7.57;;;;;;;;;;5082212;28;20067;-78
2023/07/27 12:27:40;;;;;;;11.32;7.95;;;;;;;;;;5098651;28;20539;-77
2023/07/27 12:30:07;;;;;;;10.27;7.07;;;;;;;;;;5075455;28;20057;-77
2023/07/27 12:32:32;;;;;;;9.77;7.05;;;;;;;;;;5063240;28;20369;-78
2023/07/27 12:35:00;;;;;;;10.98;6.50;;;;;;;;;;5062741;28;20028;-77
2023/07/27 12:37:26;;;;;;;8.70;5.18;;;;;;;;;;5081027;28;20047;-79
2023/07/27 12:39:51;;;;;;;9.15;6.20;;;;;;;;;;5078806;28;20020;-78
2023/07/27 12:42:16;;;;;;;8.32;5.65;;;;;;;;;;5079406;28;20032;-78
2023/07/27 12:44:42;;;;;;;9.60;5.22;;;;;;;;;;5079342;28;20023;-79
2023/07/27 12:47:07;;;;;;;14.98;6.03;;;;;;;;;;5098686;28;20495;-77
2023/07/27 12:49:32;;;;;;;7.43;4.82;;;;;;;;;;5080212;28;20059;-79
2023/07/27 12:51:58;;;;;;;6.88;4.38;;;;;;;;;;5099362;28;20016;-78
2023/07/27 12:54:23;;;;;;;6.63;4.15;;;;;;;;;;5063349;28;20024;-78
2023/07/27 12:56:48;;;;;;;5.95;3.70;;;;;;;;;;5098524;28;20465;-78
2023/07/27 12:59:14;;;;;;;9.23;3.75;;;;;;;;;;5097976;28;20032;-78
2023/07/27 13:01:39;;;;;;;5.85;4.75;;;;;;;;;;5079534;28;20031;-78
2023/07/27 13:04:04;;;;;;;7.13;5.38;;;;;;;;;;5081067;28;20054;-79
2023/07/27 13:06:29;;;;;;;7.68;5.95;;;;;;;;;;5100871;28;20424;-78
2023/07/27 13:08:55;;;;;;;6.82;5.10;;;;;;;;;;5083655;28;20071;-78
2023/07/27 13:11:21;;;;;;;8.32;5.60;;;;;;;;;;5079960;28;20043;-76
2023/07/27 13:13:46;;;;;;;7.00;5.78;;;;;;;;;;5079531;28;20077;-79
2023/07/27 13:16:11;;;;;;;8.02;5.85;;;;;;;;;;5077389;28;20024;-78
2023/07/27 13:18:37;;;;;;;11.85;6.50;;;;;;;;;;5077579;28;20418;-77
2023/07/27 13:21:02;;;;;;;8.60;6.57;;;;;;;;;;5086455;28;20028;-81
2023/07/27 13:23:27;;;;;;;7.93;5.93;;;;;;;;;;5098113;28;20028;-78
2023/07/27 13:25:52;;;;;;;8.55;5.40;;;;;;;;;;5062329;28;20019;-78
2023/07/27 13:28:18;;;;;;;7.50;5.55;;;;;;;;;;5097885;28;20028;-76
2023/07/27 13:30:43;;;;;;;9.65;5.45;;;;;;;;;;5095052;28;20474;-77
2023/07/27 13:33:09;;;;;;;6.88;4.80;;;;;;;;;;5077461;28;20024;-77
2023/07/27 13:35:34;;;;;;;7.53;5.80;;;;;;;;;;5077323;28;20053;-77
2023/07/27 13:37:59;;;;;;;8.65;6.07;;;;;;;;;;5077256;28;20035;-77
2023/07/27 13:40:25;;;;;;;9.38;6.38;;;;;;;;;;5095449;28;20355;-77
2023/07/27 13:42:51;;;;;;;9.63;5.82;;;;;;;;;;5073032;28;20166;-76
2023/07/27 13:45:16;;;;;;;8.65;5.80;;;;;;;;;;5061559;28;20154;-77
2023/07/27 13:47:41;;;;;;;7.78;5.90;;;;;;;;;;5078305;28;20044;-78
2023/07/27 13:50:07;;;;;;;8.95;6.35;;;;;;;;;;5081040;28;20035;-78
2023/07/27 13:52:33;;;;;;;8.80;6.57;;;;;;;;;;5080356;28;20039;-77
2023/07/27 13:54:58;;;;;;;8.70;5.65;;;;;;;;;;5076777;28;20336;-78
2023/07/27 13:57:23;;;;;;;8.18;5.65;;;;;;;;;;5089205;28;20020;-78
2023/07/27 13:59:48;;;;;;;9.70;5.75;;;;;;;;;;5098305;28;20031;-78
2023/07/27 14:02:17;;;;;;;8.85;5.28;;;;;;;;;;5080060;28;20039;-78
2023/07/27 14:04:42;;;;;;;9.52;5.85;;;;;;;;;;5079289;28;20016;-78
2023/07/27 14:07:08;;;;;;;8.50;5.53;;;;;;;;;;5099468;28;20028;-79
2023/07/27 14:09:33;;;;;;;9.07;5.40;;;;;;;;;;5063275;28;20027;-78
2023/07/27 14:11:58;;;;;;;6.53;4.53;;;;;;;;;;5099451;28;20028;-78
2023/07/27 14:14:24;;;;;;;7.93;4.65;;;;;;;;;;5080616;28;20220;-77
2023/07/27 14:16:49;;;;;;;5.78;4.45;;;;;;;;;;5097124;28;20096;-78
2023/07/27 14:19:14;;;;;;;5.85;3.92;;;;;;;;;;5079318;28;20032;-79
2023/07/27 14:21:39;;;;;;;5.30;3.42;;;;;;;;;;5078337;28;20020;-79
2023/07/27 14:24:05;;;;;;;5.85;3.28;;;;;;;;;;5078861;28;20016;-79
2023/07/27 14:26:30;;;;;;;4.95;3.10;;;;;;;;;;5060972;28;20047;-79
2023/07/27 14:28:55;;;;;;;4.97;3.30;;;;;;;;;;5078770;28;20032;-80
2023/07/27 14:31:21;;;;;;;3.70;2.70;;;;;;;;;;5061214;28;20032;-78
2023/07/27 14:33:46;;;;;;;3.03;2.15;;;;;;;;;;5077473;28;20031;-78
2023/07/27 14:36:12;;;;;;;4.85;2.47;;;;;;;;;;5061131;28;20020;-77
2023/07/27 14:38:37;;;;;;;3.42;2.30;;;;;;;;;;5097335;28;20024;-78
2023/07/27 14:41:02;;;;;;;3.58;2.30;;;;;;;;;;5078622;28;20055;-79